Time;durP1;ratioP1;P1;durP2;ratioP2;P2;SDS_P1;SDS_P2;PMS_P1;PMS_P2;Temp;Humidity;BMP_temperature;BMP_pressure;BME280_temperature;BME280_humidity;BME280_pressure;Samples;Min_cycle;Max_cycle;Signal;HPM_P1;HPM_P2
2023/06/24 10:39:29;;;;;;;4.20;3.50;;;;;;;;;;5059170;28;20621;-52
2023/06/24 10:41:55;;;;;;;9.00;3.05;;;;;;;;;;5037575;28;20274;-54
2023/06/24 10:44:21;;;;;;;4.45;3.17;;;;;;;;;;5035728;28;20262;-48
2023/06/24 10:46:53;;;;;;;6.13;3.45;;;;;;;;;;5035792;28;20175;-49
2023/06/24 10:49:19;;;;;;;3.38;2.97;;;;;;;;;;5032490;28;20195;-50
2023/06/24 10:51:45;;;;;;;5.35;3.17;;;;;;;;;;5036265;28;20184;-50
2023/06/24 10:54:11;;;;;;;5.85;3.15;;;;;;;;;;5036033;28;20587;-50
2023/06/24 10:56:38;;;;;;;6.63;3.38;;;;;;;;;;5035707;28;20202;-51
2023/06/24 10:59:04;;;;;;;4.10;2.90;;;;;;;;;;5036069;28;20457;-52
2023/06/24 11:01:36;;;;;;;8.07;3.50;;;;;;;;;;5035644;28;20606;-52
2023/06/24 11:04:06;;;;;;;6.22;3.47;;;;;;;;;;5035499;28;20207;-52
2023/06/24 11:06:31;;;;;;;5.55;2.75;;;;;;;;;;5035105;28;20194;-52
2023/06/24 11:09:02;;;;;;;3.35;2.67;;;;;;;;;;5017181;28;20262;-52
2023/06/24 11:11:29;;;;;;;3.95;2.88;;;;;;;;;;5033222;28;20571;-52
2023/06/24 11:13:55;;;;;;;7.55;3.78;;;;;;;;;;5036308;28;20599;-52
2023/06/24 11:16:22;;;;;;;3.90;3.50;;;;;;;;;;5034374;28;20506;-52
2023/06/24 11:18:48;;;;;;;5.30;3.58;;;;;;;;;;5027828;28;20609;-51
2023/06/24 11:21:13;;;;;;;4.28;3.20;;;;;;;;;;5035816;28;20699;-52
2023/06/24 11:23:39;;;;;;;4.63;3.60;;;;;;;;;;5035375;28;20199;-52
2023/06/24 11:26:05;;;;;;;3.70;3.08;;;;;;;;;;5029467;28;20218;-52
2023/06/24 11:28:34;;;;;;;4.65;2.72;;;;;;;;;;5035371;28;20203;-52
2023/06/24 11:31:07;;;;;;;3.75;2.95;;;;;;;;;;5039183;28;20211;-52
2023/06/24 11:33:33;;;;;;;4.32;3.10;;;;;;;;;;5035485;28;20219;-52
2023/06/24 11:35:59;;;;;;;4.03;3.10;;;;;;;;;;5035024;28;20180;-52
2023/06/24 11:38:31;;;;;;;4.10;3.22;;;;;;;;;;5035017;28;20188;-52
2023/06/24 11:40:58;;;;;;;4.03;3.17;;;;;;;;;;5033783;28;20179;-52
2023/06/24 11:43:26;;;;;;;4.82;3.67;;;;;;;;;;5036898;28;20610;-52
2023/06/24 11:45:52;;;;;;;3.47;3.17;;;;;;;;;;5028497;28;20192;-52
2023/06/24 11:48:20;;;;;;;3.97;2.80;;;;;;;;;;5028176;28;20187;-52
2023/06/24 11:50:54;;;;;;;7.82;3.28;;;;;;;;;;5034729;28;20209;-52
2023/06/24 11:53:29;;;;;;;4.20;2.90;;;;;;;;;;5030177;28;20608;-52
2023/06/24 11:55:56;;;;;;;5.18;3.13;;;;;;;;;;5016210;28;20183;-52
2023/06/24 11:58:22;;;;;;;4.35;2.90;;;;;;;;;;5034519;28;20217;-52
2023/06/24 12:00:51;;;;;;;4.10;2.67;;;;;;;;;;5034561;28;20184;-52
2023/06/24 12:03:17;;;;;;;3.42;2.72;;;;;;;;;;5031054;28;20226;-52
2023/06/24 12:05:47;;;;;;;4.10;2.90;;;;;;;;;;5034031;28;20176;-52
2023/06/24 12:08:15;;;;;;;3.00;2.70;;;;;;;;;;5035073;28;20210;-52
2023/06/24 12:10:40;;;;;;;5.40;3.00;;;;;;;;;;5033517;28;20245;-52
2023/06/24 12:13:08;;;;;;;4.25;3.10;;;;;;;;;;5028567;28;20216;-52
2023/06/24 12:15:34;;;;;;;5.72;3.03;;;;;;;;;;5033317;28;20176;-52
2023/06/24 12:18:01;;;;;;;3.13;2.83;;;;;;;;;;5034343;28;20215;-52
2023/06/24 12:20:28;;;;;;;3.42;2.88;;;;;;;;;;5034130;28;20210;-52
2023/06/24 12:22:54;;;;;;;3.67;3.00;;;;;;;;;;5038306;28;20180;-52
2023/06/24 12:25:19;;;;;;;5.57;3.13;;;;;;;;;;5036638;28;20245;-52
2023/06/24 12:27:46;;;;;;;2.90;2.60;;;;;;;;;;5033507;28;20198;-52
2023/06/24 12:30:12;;;;;;;2.95;2.60;;;;;;;;;;5027424;28;20282;-51
2023/06/24 12:32:39;;;;;;;6.20;3.22;;;;;;;;;;5034611;28;20214;-52
2023/06/24 12:35:05;;;;;;;4.00;3.17;;;;;;;;;;5034325;28;20442;-50
2023/06/24 12:37:35;;;;;;;6.88;3.13;;;;;;;;;;5032290;28;20192;-51
2023/06/24 12:40:01;;;;;;;4.38;3.28;;;;;;;;;;5034320;28;20493;-52
2023/06/24 12:42:27;;;;;;;4.03;2.95;;;;;;;;;;5031444;28;20247;-52
2023/06/24 12:44:53;;;;;;;6.57;3.13;;;;;;;;;;5032266;28;20179;-52
2023/06/24 12:47:20;;;;;;;6.60;3.40;;;;;;;;;;5032864;28;20587;-52
2023/06/24 12:49:46;;;;;;;4.93;3.20;;;;;;;;;;5033542;28;20180;-52
2023/06/24 12:52:13;;;;;;;6.20;2.92;;;;;;;;;;5032939;28;20218;-52
2023/06/24 12:54:39;;;;;;;5.47;2.92;;;;;;;;;;5033525;28;20447;-52
2023/06/24 12:57:05;;;;;;;4.25;3.25;;;;;;;;;;5033001;28;20193;-53
2023/06/24 12:59:31;;;;;;;4.38;3.33;;;;;;;;;;5033349;28;20212;-50
2023/06/24 13:01:57;;;;;;;5.28;3.22;;;;;;;;;;5034070;28;20302;-50
2023/06/24 13:04:23;;;;;;;3.30;3.00;;;;;;;;;;5033945;28;20187;-50
2023/06/24 13:06:50;;;;;;;4.32;2.85;;;;;;;;;;5031348;28;20175;-50
2023/06/24 13:09:15;;;;;;;4.03;2.90;;;;;;;;;;5032999;28;20248;-50
2023/06/24 13:11:41;;;;;;;4.20;3.28;;;;;;;;;;5033153;28;20208;-50
2023/06/24 13:14:09;;;;;;;5.45;3.08;;;;;;;;;;5034413;28;20580;-50
2023/06/24 13:16:35;;;;;;;4.05;3.20;;;;;;;;;;5031969;28;20188;-51
2023/06/24 13:19:01;;;;;;;3.95;3.38;;;;;;;;;;5010552;28;20168;-51
2023/06/24 13:21:27;;;;;;;5.32;3.10;;;;;;;;;;5033307;28;20194;-51
2023/06/24 13:23:53;;;;;;;4.32;3.30;;;;;;;;;;5033588;28;20212;-51
2023/06/24 13:26:19;;;;;;;5.45;3.50;;;;;;;;;;5037091;28;20267;-51
2023/06/24 13:28:45;;;;;;;3.70;3.10;;;;;;;;;;5033632;28;21481;-51
2023/06/24 13:31:11;;;;;;;5.80;3.40;;;;;;;;;;5033175;28;20191;-50
2023/06/24 13:33:37;;;;;;;3.25;2.75;;;;;;;;;;5033259;28;20265;-50
2023/06/24 13:36:04;;;;;;;4.45;3.20;;;;;;;;;;5032213;28;20179;-52
2023/06/24 13:38:30;;;;;;;4.00;3.30;;;;;;;;;;5032649;28;20179;-51
2023/06/24 13:40:56;;;;;;;3.38;3.00;;;;;;;;;;5033155;28;20184;-51
2023/06/24 13:43:21;;;;;;;3.65;2.83;;;;;;;;;;5033370;28;20188;-51
2023/06/24 13:45:47;;;;;;;4.07;3.40;;;;;;;;;;5031596;28;20198;-51
2023/06/24 13:48:14;;;;;;;3.40;3.10;;;;;;;;;;5032829;28;20183;-51
2023/06/24 13:50:39;;;;;;;4.43;3.03;;;;;;;;;;5032764;28;20183;-52
2023/06/24 13:53:05;;;;;;;3.63;2.90;;;;;;;;;;5033026;28;20226;-51
2023/06/24 13:55:32;;;;;;;3.42;2.90;;;;;;;;;;5032420;28;20578;-51
2023/06/24 13:57:57;;;;;;;3.90;2.70;;;;;;;;;;5033034;28;20168;-51
2023/06/24 14:00:24;;;;;;;5.13;2.72;;;;;;;;;;5032645;28;20191;-51
2023/06/24 14:02:50;;;;;;;3.38;3.03;;;;;;;;;;5032291;28;20234;-51
2023/06/24 14:05:16;;;;;;;4.80;2.83;;;;;;;;;;5037439;28;20188;-52
2023/06/24 14:07:42;;;;;;;4.57;2.70;;;;;;;;;;5032361;28;20184;-51
2023/06/24 14:10:08;;;;;;;2.70;2.50;;;;;;;;;;5032333;28;20188;-51
2023/06/24 14:12:34;;;;;;;2.80;2.60;;;;;;;;;;5024576;28;20196;-51
2023/06/24 14:15:00;;;;;;;3.97;2.65;;;;;;;;;;5031542;28;20288;-51
2023/06/24 14:17:26;;;;;;;2.47;2.28;;;;;;;;;;5034422;28;20451;-51
2023/06/24 14:19:52;;;;;;;3.03;2.42;;;;;;;;;;5033750;28;20177;-51
2023/06/24 14:22:18;;;;;;;4.10;2.88;;;;;;;;;;5035314;28;20198;-52
2023/06/24 14:24:44;;;;;;;3.88;2.78;;;;;;;;;;5035968;28;20553;-51
2023/06/24 14:27:10;;;;;;;4.63;2.83;;;;;;;;;;5029861;28;20193;-51
2023/06/24 14:29:36;;;;;;;3.92;2.67;;;;;;;;;;5034444;28;20183;-51
2023/06/24 14:32:02;;;;;;;2.53;2.33;;;;;;;;;;5036850;28;20440;-51
2023/06/24 14:34:29;;;;;;;3.63;2.70;;;;;;;;;;5036540;28;20484;-52
2023/06/24 14:36:55;;;;;;;3.95;2.50;;;;;;;;;;5036355;28;20172;-52
2023/06/24 14:39:21;;;;;;;5.97;2.70;;;;;;;;;;5039917;28;20207;-52
2023/06/24 14:41:47;;;;;;;57.65;9.48;;;;;;;;;;5034102;28;20194;-51
2023/06/24 14:44:13;;;;;;;10.63;3.92;;;;;;;;;;5035715;28;20630;-52
2023/06/24 14:46:39;;;;;;;28.13;8.02;;;;;;;;;;5035497;28;20188;-52
2023/06/24 14:49:05;;;;;;;17.67;4.60;;;;;;;;;;5035771;28;20283;-51
2023/06/24 14:51:31;;;;;;;13.18;4.18;;;;;;;;;;5035987;28;20223;-52
2023/06/24 14:53:57;;;;;;;12.70;3.85;;;;;;;;;;5035234;28;20238;-52
2023/06/24 14:56:23;;;;;;;6.45;3.22;;;;;;;;;;5034237;28;20194;-52
2023/06/24 14:58:49;;;;;;;6.72;3.58;;;;;;;;;;5035343;28;20258;-51
2023/06/24 15:01:14;;;;;;;5.45;3.08;;;;;;;;;;5035744;28;20551;-51
2023/06/24 15:03:40;;;;;;;6.57;3.35;;;;;;;;;;5035446;28;20175;-51
2023/06/24 15:06:06;;;;;;;9.45;3.45;;;;;;;;;;5034933;28;20468;-51
2023/06/24 15:08:32;;;;;;;7.05;3.40;;;;;;;;;;5035249;28;20187;-51
2023/06/24 15:10:58;;;;;;;4.82;2.92;;;;;;;;;;5035151;28;20215;-51
2023/06/24 15:13:24;;;;;;;3.85;2.90;;;;;;;;;;5033606;28;20483;-51
2023/06/24 15:15:51;;;;;;;3.58;2.65;;;;;;;;;;5029080;28;20208;-51
2023/06/24 15:18:17;;;;;;;3.33;2.78;;;;;;;;;;5033836;28;20291;-51
2023/06/24 15:20:43;;;;;;;3.10;2.58;;;;;;;;;;5034020;28;20270;-51
2023/06/24 15:23:09;;;;;;;2.97;2.22;;;;;;;;;;5034691;28;20184;-52
2023/06/24 15:25:35;;;;;;;3.00;2.67;;;;;;;;;;5035595;28;20506;-52
2023/06/24 15:28:01;;;;;;;2.92;2.63;;;;;;;;;;5034784;28;20188;-52
2023/06/24 15:30:27;;;;;;;3.88;2.83;;;;;;;;;;5039230;28;20188;-51
2023/06/24 15:32:53;;;;;;;3.70;2.65;;;;;;;;;;5035340;28;20203;-57
2023/06/24 15:35:19;;;;;;;3.90;2.80;;;;;;;;;;5034892;28;20191;-52
2023/06/24 15:37:45;;;;;;;4.38;2.90;;;;;;;;;;5035256;28;20184;-51
2023/06/24 15:40:11;;;;;;;6.28;3.25;;;;;;;;;;5034796;28;20202;-52
2023/06/24 15:42:37;;;;;;;5.30;2.75;;;;;;;;;;5026700;28;20192;-52
2023/06/24 15:45:04;;;;;;;4.38;2.40;;;;;;;;;;5036554;28;20230;-52
2023/06/24 15:47:30;;;;;;;6.55;2.78;;;;;;;;;;5038034;28;20187;-52
2023/06/24 15:49:56;;;;;;;4.55;2.83;;;;;;;;;;5017290;28;20179;-52
2023/06/24 15:52:22;;;;;;;3.42;2.80;;;;;;;;;;5035233;28;20272;-52
2023/06/24 15:54:47;;;;;;;3.22;2.80;;;;;;;;;;5033898;28;20620;-51
2023/06/24 15:57:13;;;;;;;3.95;2.90;;;;;;;;;;5033914;28;20266;-51
2023/06/24 15:59:39;;;;;;;3.78;2.78;;;;;;;;;;5034320;28;20451;-51
2023/06/24 16:02:06;;;;;;;2.88;2.65;;;;;;;;;;5036189;28;20663;-52
2023/06/24 16:04:32;;;;;;;2.40;2.20;;;;;;;;;;5038054;28;20309;-51
2023/06/24 16:06:58;;;;;;;2.85;2.55;;;;;;;;;;5031140;28;20255;-52
2023/06/24 16:09:24;;;;;;;4.85;2.80;;;;;;;;;;5029480;28;20184;-51
2023/06/24 16:11:50;;;;;;;3.25;2.95;;;;;;;;;;5034361;28;20188;-51
2023/06/24 16:14:16;;;;;;;3.58;2.65;;;;;;;;;;5034378;28;20478;-51
2023/06/24 16:16:41;;;;;;;3.70;2.80;;;;;;;;;;5033434;28;20219;-51
2023/06/24 16:19:07;;;;;;;5.07;2.42;;;;;;;;;;5031338;28;20179;-52
2023/06/24 16:21:33;;;;;;;3.22;2.80;;;;;;;;;;5034098;28;20261;-52
2023/06/24 16:23:59;;;;;;;2.50;2.30;;;;;;;;;;5034105;28;20255;-52
2023/06/24 16:26:25;;;;;;;3.03;2.53;;;;;;;;;;5016722;28;20184;-51
2023/06/24 16:28:53;;;;;;;5.20;2.88;;;;;;;;;;5033956;28;20575;-51
2023/06/24 16:31:20;;;;;;;2.70;2.50;;;;;;;;;;5033830;28;20445;-51
2023/06/24 16:33:46;;;;;;;3.22;2.58;;;;;;;;;;5034078;28;20199;-51
2023/06/24 16:36:12;;;;;;;3.38;2.58;;;;;;;;;;5033756;28;20626;-52
2023/06/24 16:38:38;;;;;;;3.40;2.90;;;;;;;;;;5034067;28;20316;-52
2023/06/24 16:41:04;;;;;;;3.53;2.80;;;;;;;;;;5033812;28;20180;-51
2023/06/24 16:43:30;;;;;;;4.40;2.75;;;;;;;;;;5033153;28;20861;-51
2023/06/24 16:45:56;;;;;;;3.15;2.50;;;;;;;;;;5032692;28;20233;-52
2023/06/24 16:48:22;;;;;;;4.10;2.83;;;;;;;;;;5033859;28;20195;-52
2023/06/24 16:50:48;;;;;;;3.30;2.88;;;;;;;;;;5033057;28;20258;-51
2023/06/24 16:53:14;;;;;;;3.47;2.70;;;;;;;;;;5036445;28;20226;-51
2023/06/24 16:55:40;;;;;;;3.13;2.75;;;;;;;;;;5034332;28;20180;-51
2023/06/24 16:58:06;;;;;;;3.40;2.95;;;;;;;;;;5029971;28;20173;-51
2023/06/24 17:00:32;;;;;;;3.72;2.90;;;;;;;;;;5022771;28;20275;-51
2023/06/24 17:02:57;;;;;;;2.55;2.35;;;;;;;;;;5025844;28;20188;-51
2023/06/24 17:05:23;;;;;;;3.20;2.72;;;;;;;;;;5032379;28;20223;-51
2023/06/24 17:07:49;;;;;;;3.10;2.80;;;;;;;;;;5025360;28;20210;-52
2023/06/24 17:10:15;;;;;;;3.42;3.13;;;;;;;;;;5028846;28;20183;-51
2023/06/24 17:12:41;;;;;;;2.50;2.28;;;;;;;;;;5025037;28;20195;-51
2023/06/24 17:15:07;;;;;;;3.50;2.80;;;;;;;;;;5014665;28;20263;-51
2023/06/24 17:17:33;;;;;;;3.30;2.60;;;;;;;;;;5028955;28;20235;-52
2023/06/24 17:20:01;;;;;;;3.78;2.90;;;;;;;;;;5033759;28;20175;-51
2023/06/24 17:22:27;;;;;;;2.67;2.42;;;;;;;;;;5027654;28;20516;-51
2023/06/24 17:24:53;;;;;;;2.70;2.50;;;;;;;;;;5025739;28;20186;-51
2023/06/24 17:27:19;;;;;;;3.35;2.65;;;;;;;;;;5024847;28;20259;-51
2023/06/24 17:29:45;;;;;;;3.00;2.67;;;;;;;;;;5017318;28;20192;-51
2023/06/24 17:32:10;;;;;;;3.67;2.88;;;;;;;;;;5033559;28;20188;-51
2023/06/24 17:34:36;;;;;;;3.67;2.78;;;;;;;;;;5033714;28;20278;-51
2023/06/24 17:37:02;;;;;;;2.50;2.30;;;;;;;;;;5024888;28;20497;-51
2023/06/24 17:39:28;;;;;;;3.10;2.80;;;;;;;;;;5030277;28;20195;-51
2023/06/24 17:41:54;;;;;;;3.13;2.80;;;;;;;;;;5031774;28;20218;-51
2023/06/24 17:44:20;;;;;;;2.83;2.50;;;;;;;;;;5022327;28;20210;-51
2023/06/24 17:46:46;;;;;;;2.55;2.35;;;;;;;;;;5034876;28;20192;-51
2023/06/24 17:49:12;;;;;;;4.20;2.80;;;;;;;;;;5033347;28;20188;-51
2023/06/24 17:51:38;;;;;;;3.35;2.90;;;;;;;;;;5033831;28;20192;-51
2023/06/24 17:54:04;;;;;;;2.90;2.60;;;;;;;;;;5037156;28;20215;-51
2023/06/24 17:56:29;;;;;;;3.17;2.72;;;;;;;;;;5035260;28;20596;-51
2023/06/24 17:58:55;;;;;;;3.95;2.88;;;;;;;;;;5019424;28;20169;-51
2023/06/24 18:01:25;;;;;;;3.03;2.72;;;;;;;;;;5022149;28;20291;-51
2023/06/24 18:03:51;;;;;;;3.00;2.70;;;;;;;;;;5036816;28;20456;-51
2023/06/24 18:06:17;;;;;;;3.42;2.60;;;;;;;;;;5029437;28;20559;-51
2023/06/24 18:08:42;;;;;;;4.03;2.83;;;;;;;;;;5037380;28;20175;-51
2023/06/24 18:11:08;;;;;;;2.90;2.65;;;;;;;;;;5026190;28;20311;-51
2023/06/24 18:13:34;;;;;;;3.58;3.00;;;;;;;;;;5026879;28;20200;-51
2023/06/24 18:16:00;;;;;;;3.72;2.72;;;;;;;;;;5036011;28;20195;-51
2023/06/24 18:18:26;;;;;;;3.00;2.75;;;;;;;;;;5035814;28;20559;-51
2023/06/24 18:20:52;;;;;;;3.38;2.80;;;;;;;;;;5030470;28;20250;-51
2023/06/24 18:23:18;;;;;;;3.75;2.60;;;;;;;;;;5035363;28;20188;-51
2023/06/24 18:25:44;;;;;;;3.75;3.00;;;;;;;;;;5035980;28;20454;-51
2023/06/24 18:28:10;;;;;;;5.07;2.75;;;;;;;;;;5035991;28;20184;-51
2023/06/24 18:30:35;;;;;;;3.33;2.80;;;;;;;;;;5036580;28;20233;-51
2023/06/24 18:33:01;;;;;;;2.78;2.35;;;;;;;;;;5028133;28;20200;-51
2023/06/24 18:35:27;;;;;;;3.47;2.60;;;;;;;;;;5031502;28;20279;-51
2023/06/24 18:37:53;;;;;;;3.28;2.47;;;;;;;;;;5027522;28;20972;-51
2023/06/24 18:40:19;;;;;;;2.60;2.40;;;;;;;;;;5031977;28;20203;-51
2023/06/24 18:42:45;;;;;;;4.38;3.00;;;;;;;;;;5035078;28;20188;-51
2023/06/24 18:45:11;;;;;;;3.08;2.63;;;;;;;;;;5032471;28;20188;-51
2023/06/24 18:47:37;;;;;;;3.50;2.78;;;;;;;;;;5031474;28;20184;-51
2023/06/24 18:50:03;;;;;;;4.15;3.03;;;;;;;;;;5026219;28;20184;-51
2023/06/24 18:52:29;;;;;;;2.65;2.45;;;;;;;;;;5038285;28;20253;-51
2023/06/24 18:54:55;;;;;;;3.15;2.80;;;;;;;;;;5037384;28;20218;-51
2023/06/24 18:57:21;;;;;;;3.03;2.60;;;;;;;;;;5017479;28;20206;-51
2023/06/24 18:59:47;;;;;;;3.42;3.13;;;;;;;;;;5020122;28;20239;-51
2023/06/24 19:02:13;;;;;;;4.10;3.08;;;;;;;;;;5034162;28;20183;-51
2023/06/24 19:04:39;;;;;;;3.63;2.92;;;;;;;;;;5035837;28;20183;-51
2023/06/24 19:07:05;;;;;;;3.45;3.00;;;;;;;;;;5033460;28;20184;-51
2023/06/24 19:09:31;;;;;;;3.20;2.90;;;;;;;;;;5040696;28;20274;-51
2023/06/24 19:11:57;;;;;;;4.00;3.10;;;;;;;;;;5038696;28;20192;-51
2023/06/24 19:14:23;;;;;;;4.78;3.15;;;;;;;;;;5027748;28;20235;-51
2023/06/24 19:16:50;;;;;;;3.47;3.10;;;;;;;;;;5034000;28;20215;-51
2023/06/24 19:19:16;;;;;;;3.50;2.92;;;;;;;;;;5032778;28;20611;-51
2023/06/24 19:21:42;;;;;;;4.15;3.30;;;;;;;;;;5035866;28;20271;-51
2023/06/24 19:24:08;;;;;;;3.85;3.30;;;;;;;;;;5027335;28;20236;-51
2023/06/24 19:26:34;;;;;;;3.58;3.00;;;;;;;;;;5027768;28;20543;-51
2023/06/24 19:29:00;;;;;;;5.65;3.40;;;;;;;;;;5028695;28;20540;-51
2023/06/24 19:31:26;;;;;;;3.67;3.17;;;;;;;;;;5028291;28;20258;-51
2023/06/24 19:33:52;;;;;;;3.70;3.30;;;;;;;;;;5034330;28;20226;-51
2023/06/24 19:36:21;;;;;;;3.30;3.00;;;;;;;;;;5031583;28;20177;-51
2023/06/24 19:38:48;;;;;;;3.33;3.03;;;;;;;;;;5031384;28;20543;-51
2023/06/24 19:41:14;;;;;;;3.47;3.10;;;;;;;;;;5035073;28;20500;-51
2023/06/24 19:43:40;;;;;;;4.45;3.47;;;;;;;;;;5034923;28;20176;-51
2023/06/24 19:46:06;;;;;;;5.35;3.83;;;;;;;;;;5034397;28;20164;-51
2023/06/24 19:48:32;;;;;;;4.93;3.75;;;;;;;;;;5034988;28;20175;-51
2023/06/24 19:50:58;;;;;;;4.70;3.35;;;;;;;;;;5034717;28;20187;-51
2023/06/24 19:53:24;;;;;;;4.18;3.78;;;;;;;;;;5031619;28;20203;-51
2023/06/24 19:55:50;;;;;;;4.55;3.63;;;;;;;;;;5033293;28;20194;-51
2023/06/24 19:58:16;;;;;;;5.05;3.80;;;;;;;;;;5034551;28;20184;-51
2023/06/24 20:00:42;;;;;;;3.50;3.15;;;;;;;;;;5034814;28;20906;-51
2023/06/24 20:03:07;;;;;;;5.15;3.65;;;;;;;;;;5034574;28;20196;-51
2023/06/24 20:05:33;;;;;;;4.22;3.28;;;;;;;;;;5034011;28;20186;-51
2023/06/24 20:07:59;;;;;;;4.50;3.65;;;;;;;;;;5032166;28;20593;-51
2023/06/24 20:10:25;;;;;;;4.72;3.60;;;;;;;;;;5026150;28;20662;-51
2023/06/24 20:12:53;;;;;;;3.38;3.08;;;;;;;;;;5034521;28;20182;-51
2023/06/24 20:15:19;;;;;;;3.92;3.58;;;;;;;;;;5032851;28;20172;-50
2023/06/24 20:17:45;;;;;;;5.47;3.95;;;;;;;;;;5035013;28;20206;-51
2023/06/24 20:20:11;;;;;;;4.22;3.28;;;;;;;;;;5033082;28;20221;-51
2023/06/24 20:22:36;;;;;;;4.40;3.53;;;;;;;;;;5023092;28;20291;-51
2023/06/24 20:25:03;;;;;;;4.38;3.55;;;;;;;;;;5032388;28;20499;-51
2023/06/24 20:27:32;;;;;;;4.20;3.75;;;;;;;;;;5025847;28;20175;-51
2023/06/24 20:29:58;;;;;;;3.67;3.22;;;;;;;;;;5018687;28;20172;-51
2023/06/24 20:32:24;;;;;;;4.15;3.50;;;;;;;;;;5030988;28;20176;-51
2023/06/24 20:34:50;;;;;;;4.22;3.60;;;;;;;;;;5022610;28;20219;-50
2023/06/24 20:37:15;;;;;;;3.95;3.55;;;;;;;;;;5023909;28;20187;-50
2023/06/24 20:39:43;;;;;;;4.40;3.60;;;;;;;;;;5033346;28;20214;-51
2023/06/24 20:42:09;;;;;;;3.63;3.33;;;;;;;;;;5018268;28;20570;-51
2023/06/24 20:44:35;;;;;;;5.20;3.40;;;;;;;;;;5027355;28;21075;-51
2023/06/24 20:47:01;;;;;;;4.57;3.40;;;;;;;;;;5033620;28;20176;-51
2023/06/24 20:49:27;;;;;;;3.40;3.10;;;;;;;;;;5031694;28;20569;-51
2023/06/24 20:51:53;;;;;;;4.53;3.58;;;;;;;;;;5034670;28;20188;-51
2023/06/24 20:54:19;;;;;;;4.43;3.63;;;;;;;;;;5021930;28;20218;-51
2023/06/24 20:56:44;;;;;;;4.78;4.05;;;;;;;;;;5020397;28;20182;-51
2023/06/24 20:59:10;;;;;;;5.43;3.88;;;;;;;;;;5032539;28;20176;-51
2023/06/24 21:01:36;;;;;;;4.25;3.70;;;;;;;;;;5025642;28;20443;-51
2023/06/24 21:04:02;;;;;;;5.32;4.32;;;;;;;;;;5034090;28;20183;-51
2023/06/24 21:06:28;;;;;;;5.70;4.18;;;;;;;;;;5021371;28;20183;-51
2023/06/24 21:08:54;;;;;;;6.95;4.88;;;;;;;;;;5032368;28;20433;-51
2023/06/24 21:11:21;;;;;;;5.05;4.22;;;;;;;;;;5029280;28;20191;-51
2023/06/24 21:13:47;;;;;;;5.60;4.30;;;;;;;;;;5031005;28;20223;-51
2023/06/24 21:16:13;;;;;;;5.72;5.00;;;;;;;;;;5031263;28;20180;-51
2023/06/24 21:18:39;;;;;;;6.03;5.35;;;;;;;;;;5014937;28;20176;-51
2023/06/24 21:21:05;;;;;;;6.85;5.40;;;;;;;;;;5018841;28;20498;-51
2023/06/24 21:23:30;;;;;;;6.30;5.40;;;;;;;;;;5026870;28;20192;-51
2023/06/24 21:25:56;;;;;;;6.00;5.15;;;;;;;;;;5038354;28;20214;-51
2023/06/24 21:28:22;;;;;;;6.63;5.28;;;;;;;;;;5033148;28;20187;-51
2023/06/24 21:30:48;;;;;;;6.90;5.28;;;;;;;;;;5037833;28;20195;-52
2023/06/24 21:33:14;;;;;;;6.68;5.47;;;;;;;;;;5037488;28;20230;-51
2023/06/24 21:35:40;;;;;;;6.95;5.38;;;;;;;;;;5031141;28;20191;-51
2023/06/24 21:38:06;;;;;;;7.63;5.40;;;;;;;;;;5031385;28;20180;-51
2023/06/24 21:40:32;;;;;;;6.97;4.95;;;;;;;;;;5034205;28;20196;-51
2023/06/24 21:42:59;;;;;;;6.07;5.20;;;;;;;;;;5027760;28;20194;-51
2023/06/24 21:45:25;;;;;;;6.93;5.82;;;;;;;;;;5026195;28;20261;-52
2023/06/24 21:47:51;;;;;;;6.60;5.70;;;;;;;;;;5017971;28;20176;-51
2023/06/24 21:50:16;;;;;;;7.47;5.80;;;;;;;;;;5031953;28;20218;-51
2023/06/24 21:52:42;;;;;;;8.93;6.40;;;;;;;;;;5025544;28;20184;-52
2023/06/24 21:55:08;;;;;;;7.07;6.38;;;;;;;;;;5011671;28;20330;-51
2023/06/24 21:57:34;;;;;;;7.03;5.88;;;;;;;;;;5036010;28;20172;-51
2023/06/24 22:00:00;;;;;;;7.05;6.25;;;;;;;;;;5036908;28;20183;-51
2023/06/24 22:02:26;;;;;;;8.30;6.55;;;;;;;;;;5034798;28;20187;-51
2023/06/24 22:04:52;;;;;;;10.35;6.53;;;;;;;;;;5021618;28;20208;-51
2023/06/24 22:07:18;;;;;;;8.95;6.45;;;;;;;;;;5025963;28;20522;-51
2023/06/24 22:09:44;;;;;;;8.77;6.32;;;;;;;;;;5028829;28;20192;-51
2023/06/24 22:12:10;;;;;;;6.95;5.68;;;;;;;;;;5028207;28;20184;-51
2023/06/24 22:14:36;;;;;;;6.82;6.10;;;;;;;;;;5036690;28;20471;-51
2023/06/24 22:17:02;;;;;;;8.90;6.25;;;;;;;;;;5032096;28;20367;-51
2023/06/24 22:19:28;;;;;;;10.05;6.78;;;;;;;;;;5034216;28;20555;-51
2023/06/24 22:21:53;;;;;;;7.30;6.30;;;;;;;;;;5008334;28;20275;-51
2023/06/24 22:24:19;;;;;;;8.13;6.50;;;;;;;;;;5021607;28;20187;-51
2023/06/24 22:26:45;;;;;;;5.88;5.28;;;;;;;;;;5021684;28;20559;-51
2023/06/24 22:29:11;;;;;;;10.00;6.00;;;;;;;;;;5027866;28;20187;-51
2023/06/24 22:31:37;;;;;;;10.43;5.70;;;;;;;;;;5031350;28;20520;-51
2023/06/24 22:34:03;;;;;;;8.48;6.00;;;;;;;;;;5026411;28;20235;-51
2023/06/24 22:36:29;;;;;;;10.35;6.05;;;;;;;;;;5021287;28;20180;-51
2023/06/24 22:38:55;;;;;;;9.18;5.50;;;;;;;;;;5035791;28;20540;-51
2023/06/24 22:41:21;;;;;;;6.32;5.38;;;;;;;;;;5021918;28;20200;-51
2023/06/24 22:43:46;;;;;;;8.20;6.07;;;;;;;;;;5025648;28;20172;-51
2023/06/24 22:46:12;;;;;;;9.02;5.53;;;;;;;;;;5031610;28;20263;-51
2023/06/24 22:48:38;;;;;;;7.72;6.03;;;;;;;;;;5027501;28;20531;-51
2023/06/24 22:51:04;;;;;;;7.78;5.47;;;;;;;;;;5033635;28;20180;-51
2023/06/24 22:53:30;;;;;;;9.02;5.53;;;;;;;;;;5036078;28;20208;-51
2023/06/24 22:55:56;;;;;;;8.23;5.55;;;;;;;;;;5025985;28;20448;-51
2023/06/24 22:58:22;;;;;;;8.35;5.28;;;;;;;;;;5017727;28;20267;-51
2023/06/24 23:00:48;;;;;;;9.40;5.85;;;;;;;;;;5036098;28;20470;-51
2023/06/24 23:03:14;;;;;;;8.10;4.95;;;;;;;;;;5027573;28;20176;-52
2023/06/24 23:05:41;;;;;;;6.25;5.30;;;;;;;;;;5033653;28;20188;-51
2023/06/24 23:08:07;;;;;;;6.75;4.95;;;;;;;;;;5034332;28;20245;-52
2023/06/24 23:10:33;;;;;;;5.40;4.80;;;;;;;;;;5035806;28;20871;-52
2023/06/24 23:12:59;;;;;;;7.90;5.10;;;;;;;;;;5036074;28;20179;-51
2023/06/24 23:15:25;;;;;;;5.95;5.10;;;;;;;;;;5019114;28;20208;-51
2023/06/24 23:17:51;;;;;;;6.93;5.13;;;;;;;;;;5030739;28;20447;-51
2023/06/24 23:20:17;;;;;;;5.43;4.47;;;;;;;;;;5029645;28;20266;-51
2023/06/24 23:22:43;;;;;;;6.28;4.30;;;;;;;;;;5032227;28;20173;-51
2023/06/24 23:25:09;;;;;;;7.13;4.63;;;;;;;;;;5032805;28;20544;-51
2023/06/24 23:27:37;;;;;;;6.85;4.63;;;;;;;;;;5032738;28;20226;-51
2023/06/24 23:30:06;;;;;;;7.32;4.72;;;;;;;;;;5022391;28;20532;-51
2023/06/24 23:32:36;;;;;;;7.35;4.70;;;;;;;;;;5024961;28;20184;-51
2023/06/24 23:35:02;;;;;;;6.60;4.75;;;;;;;;;;5023381;28;20227;-51
2023/06/24 23:37:28;;;;;;;5.70;4.55;;;;;;;;;;5030628;28;20551;-51
2023/06/24 23:39:54;;;;;;;8.00;5.20;;;;;;;;;;5035147;28;20202;-51
2023/06/24 23:42:20;;;;;;;5.03;4.53;;;;;;;;;;5010099;28;20246;-51
2023/06/24 23:44:46;;;;;;;7.47;4.50;;;;;;;;;;5024790;28;20212;-51
2023/06/24 23:47:12;;;;;;;7.55;4.72;;;;;;;;;;5023455;28;20237;-51
2023/06/24 23:49:38;;;;;;;4.97;4.20;;;;;;;;;;5026233;28;20180;-51
2023/06/24 23:52:04;;;;;;;6.22;5.03;;;;;;;;;;5034779;28;20212;-51
2023/06/24 23:54:30;;;;;;;8.18;4.15;;;;;;;;;;5030232;28;20196;-52
2023/06/24 23:56:56;;;;;;;5.00;4.50;;;;;;;;;;5029008;28;20180;-51
2023/06/24 23:59:22;;;;;;;5.07;4.47;;;;;;;;;;5028148;28;20195;-51
